Time;durP1;ratioP1;P1;durP2;ratioP2;P2;SDS_P1;SDS_P2;PMS_P1;PMS_P2;Temp;Humidity;BMP_temperature;BMP_pressure;BME280_temperature;BME280_humidity;BME280_pressure;Samples;Min_cycle;Max_cycle;Signal;HPM_P1;HPM_P2
2022/08/06 00:00:01;;;;;;;;;;;;;;;22.23;71.84;99082.34;1691928;83;20099;-68
2022/08/06 00:02:28;;;;;;;;;;;;;;;22.24;71.91;99079.89;1695382;83;21237;-69
2022/08/06 00:04:56;;;;;;;;;;;;;;;22.26;71.97;99085.08;1692013;83;20119;-69
2022/08/06 00:07:23;;;;;;;;;;;;;;;22.29;71.97;99084.02;1695117;83;20095;-68
2022/08/06 00:09:49;;;;;;;;;;;;;;;22.32;71.96;99078.09;1677735;84;20709;-68
2022/08/06 00:12:15;;;;;;;;;;;;;;;22.37;71.84;99080.05;1666472;84;20157;-69
2022/08/06 00:14:42;;;;;;;;;;;;;;;22.39;71.65;99078.72;1707089;82;21153;-68
2022/08/06 00:17:08;;;;;;;;;;;;;;;22.38;71.53;99077.08;1725803;83;20101;-68
2022/08/06 00:19:35;;;;;;;;;;;;;;;22.36;71.63;99075.70;1694306;84;20127;-68
2022/08/06 00:22:01;;;;;;;;;;;;;;;22.33;71.62;99082.44;1673576;84;20420;-68
2022/08/06 00:24:27;;;;;;;;;;;;;;;22.28;71.61;99082.39;1707287;83;20103;-68
2022/08/06 00:26:53;;;;;;;;;;;;;;;22.23;71.73;99072.03;1706194;83;21120;-69
2022/08/06 00:29:20;;;;;;;;;;;;;;;22.20;71.90;99074.72;1717340;83;20099;-69
2022/08/06 00:31:46;;;;;;;;;;;;;;;22.20;72.08;99073.89;1715684;83;20143;-68
2022/08/06 00:34:12;;;;;;;;;;;;;;;22.22;72.19;99076.63;1707973;82;20095;-68
2022/08/06 00:36:39;;;;;;;;;;;;;;;22.27;72.21;99075.86;1735831;82;20081;-67
2022/08/06 00:39:06;;;;;;;;;;;;;;;22.30;72.18;99075.35;1713534;83;21237;-67
2022/08/06 00:41:32;;;;;;;;;;;;;;;22.33;72.15;99081.63;1699430;83;20086;-67
2022/08/06 00:43:59;;;;;;;;;;;;;;;22.34;72.11;99083.27;1717748;83;20093;-68
2022/08/06 00:46:26;;;;;;;;;;;;;;;22.36;72.09;99083.30;1708773;83;20125;-67
2022/08/06 00:48:52;;;;;;;;;;;;;;;22.38;72.02;99083.02;1702996;83;20091;-67
2022/08/06 00:51:18;;;;;;;;;;;;;;;22.39;71.98;99079.25;1693069;83;21172;-68
2022/08/06 00:53:46;;;;;;;;;;;;;;;22.41;71.94;99080.63;1689754;83;20104;-67
2022/08/06 00:56:12;;;;;;;;;;;;;;;22.39;71.93;99075.19;1702629;83;20087;-67
2022/08/06 00:58:38;;;;;;;;;;;;;;;22.40;71.91;99074.09;1690364;83;20171;-68
2022/08/06 01:01:04;;;;;;;;;;;;;;;22.42;71.91;99073.33;1687882;83;20087;-67
2022/08/06 01:03:31;;;;;;;;;;;;;;;22.44;71.91;99077.95;1693163;83;21160;-68
2022/08/06 01:05:57;;;;;;;;;;;;;;;22.44;71.84;99075.23;1712993;83;20151;-67
2022/08/06 01:08:23;;;;;;;;;;;;;;;22.44;71.85;99083.37;1716975;83;20102;-68
2022/08/06 01:10:50;;;;;;;;;;;;;;;22.43;71.86;99083.90;1713184;84;20177;-67
2022/08/06 01:13:16;;;;;;;;;;;;;;;22.43;71.86;99079.01;1707513;84;20119;-68
2022/08/06 01:15:44;;;;;;;;;;;;;;;22.43;71.87;99083.90;1705997;83;21248;-68
2022/08/06 01:18:13;;;;;;;;;;;;;;;22.43;71.87;99083.90;1715230;82;20090;-68
2022/08/06 01:20:58;;;;;;;;;;;;;;;22.44;71.79;99090.14;1731745;82;20436;-68
2022/08/06 01:23:40;;;;;;;;;;;;;;;22.43;71.78;99094.73;1689209;84;20141;-68
2022/08/06 01:26:39;;;;;;;;;;;;;;;22.44;71.72;99094.20;1696435;83;20125;-68
2022/08/06 01:29:26;;;;;;;;;;;;;;;22.43;71.79;99097.45;1687110;83;21173;-67
2022/08/06 01:31:58;;;;;;;;;;;;;;;22.41;71.81;99098.25;1684684;83;20128;-67
2022/08/06 01:34:36;;;;;;;;;;;;;;;22.34;71.76;99100.88;1689687;83;20103;-68
2022/08/06 01:37:06;;;;;;;;;;;;;;;22.28;71.97;99104.07;1697015;84;20073;-68
2022/08/06 01:39:32;;;;;;;;;;;;;;;22.26;72.20;99095.92;1695350;83;20114;-67
2022/08/06 01:41:58;;;;;;;;;;;;;;;22.25;72.22;99098.33;1714021;83;21161;-67
2022/08/06 01:44:33;;;;;;;;;;;;;;;22.19;71.38;99098.81;1693745;83;20085;-67
2022/08/06 01:47:02;;;;;;;;;;;;;;;22.08;71.34;99100.58;1701084;82;20090;-67
2022/08/06 01:49:29;;;;;;;;;;;;;;;21.96;71.37;99099.91;1677676;84;20614;-67
2022/08/06 01:51:57;;;;;;;;;;;;;;;21.87;71.48;99108.20;1685616;83;20438;-67
2022/08/06 01:54:24;;;;;;;;;;;;;;;21.73;71.66;99102.84;1697844;83;21796;-67
2022/08/06 01:56:52;;;;;;;;;;;;;;;21.56;71.99;99103.97;1713933;83;20138;-67
2022/08/06 01:59:21;;;;;;;;;;;;;;;21.42;72.52;99114.32;1690771;83;20452;-67
2022/08/06 02:01:49;;;;;;;;;;;;;;;21.32;72.87;99111.47;1696192;83;20459;-67
2022/08/06 02:04:16;;;;;;;;;;;;;;;21.27;73.20;99104.64;1744181;81;20107;-67
2022/08/06 02:06:44;;;;;;;;;;;;;;;21.21;73.17;99105.62;1744148;82;21156;-67
2022/08/06 02:09:14;;;;;;;;;;;;;;;21.13;73.39;99103.33;1744007;82;20119;-67
2022/08/06 02:11:40;;;;;;;;;;;;;;;21.09;73.53;99108.95;1744447;82;20147;-66
2022/08/06 02:14:07;;;;;;;;;;;;;;;21.00;73.41;99109.86;1744093;82;20138;-66
2022/08/06 02:16:36;;;;;;;;;;;;;;;20.89;73.30;99107.52;1739813;82;20141;-66
2022/08/06 02:19:04;;;;;;;;;;;;;;;20.77;73.44;99105.97;1729688;81;21162;-66
2022/08/06 02:21:31;;;;;;;;;;;;;;;20.65;73.73;99107.94;1704687;83;20439;-68
2022/08/06 02:23:57;;;;;;;;;;;;;;;20.54;74.18;99104.23;1692139;83;20161;-68
2022/08/06 02:26:23;;;;;;;;;;;;;;;20.49;75.14;99106.81;1716664;82;20107;-69
2022/08/06 02:28:50;;;;;;;;;;;;;;;20.48;76.08;99104.37;1694055;83;20430;-68
2022/08/06 02:31:16;;;;;;;;;;;;;;;20.49;76.84;99100.05;1702453;83;21163;-68
2022/08/06 02:33:42;;;;;;;;;;;;;;;20.56;77.42;99103.45;1717568;82;20180;-69
2022/08/06 02:36:18;;;;;;;;;;;;;;;20.65;77.79;99110.08;1696296;84;20116;-68
2022/08/06 02:38:52;;;;;;;;;;;;;;;20.71;77.64;99106.94;1715231;83;20135;-68
2022/08/06 02:41:21;;;;;;;;;;;;;;;20.76;77.51;99110.55;1692562;82;20158;-68
2022/08/06 02:44:08;;;;;;;;;;;;;;;20.80;77.76;99118.47;1703292;84;21182;-68
2022/08/06 02:46:41;;;;;;;;;;;;;;;20.82;77.48;99120.92;1696411;82;20157;-68
2022/08/06 02:49:10;;;;;;;;;;;;;;;20.82;77.38;99114.98;1685477;83;20152;-68
2022/08/06 02:51:40;;;;;;;;;;;;;;;20.84;77.37;99113.38;1690825;84;20192;-68
2022/08/06 02:54:15;;;;;;;;;;;;;;;20.88;77.56;99115.89;1673363;84;20139;-68
2022/08/06 02:56:43;;;;;;;;;;;;;;;20.93;77.54;99115.42;1707004;84;21206;-67
2022/08/06 02:59:10;;;;;;;;;;;;;;;20.94;77.34;99116.24;1688052;84;20116;-67
2022/08/06 03:01:39;;;;;;;;;;;;;;;20.94;77.26;99118.42;1682105;84;20221;-67
2022/08/06 03:04:06;;;;;;;;;;;;;;;20.90;76.64;99118.64;1677416;84;20096;-67
2022/08/06 03:06:33;;;;;;;;;;;;;;;20.86;76.43;99121.53;1679346;84;20136;-67
2022/08/06 03:09:01;;;;;;;;;;;;;;;20.84;76.32;99123.66;1683756;84;21155;-67
2022/08/06 03:11:29;;;;;;;;;;;;;;;20.83;76.10;99126.06;1699781;83;20117;-67
2022/08/06 03:13:56;;;;;;;;;;;;;;;20.87;76.56;99133.99;1705863;84;20424;-68
2022/08/06 03:16:22;;;;;;;;;;;;;;;20.94;76.93;99134.64;1686724;84;20141;-68
2022/08/06 03:18:48;;;;;;;;;;;;;;;21.04;77.15;99138.59;1683732;84;20100;-67
2022/08/06 03:21:14;;;;;;;;;;;;;;;21.13;77.20;99135.25;1683766;84;21161;-67
2022/08/06 03:23:41;;;;;;;;;;;;;;;21.22;77.14;99137.81;1681148;84;20124;-67
2022/08/06 03:26:07;;;;;;;;;;;;;;;21.34;77.05;99134.50;1701014;83;20111;-68
2022/08/06 03:28:35;;;;;;;;;;;;;;;21.45;76.82;99137.66;1704193;84;20178;-68
2022/08/06 03:31:02;;;;;;;;;;;;;;;21.61;76.54;99137.34;1703256;84;20155;-68
2022/08/06 03:33:29;;;;;;;;;;;;;;;21.77;75.94;99130.24;1683699;84;21164;-67
2022/08/06 03:35:57;;;;;;;;;;;;;;;21.90;75.68;99130.70;1679360;83;20466;-68
2022/08/06 03:38:25;;;;;;;;;;;;;;;22.09;75.28;99136.62;1669775;84;20084;-68
2022/08/06 03:40:51;;;;;;;;;;;;;;;22.29;74.58;99129.28;1676426;84;20120;-68
2022/08/06 03:43:17;;;;;;;;;;;;;;;22.48;73.71;99135.97;1674147;84;20439;-68
2022/08/06 03:45:47;;;;;;;;;;;;;;;22.65;72.91;99142.98;1675323;84;21175;-68
2022/08/06 03:48:16;;;;;;;;;;;;;;;22.80;71.99;99139.59;1673255;84;20109;-69
2022/08/06 03:50:43;;;;;;;;;;;;;;;23.00;71.36;99149.25;1669981;84;20156;-68
2022/08/06 03:53:26;;;;;;;;;;;;;;;23.21;70.92;99140.73;1665791;84;20156;-68
2022/08/06 03:55:55;;;;;;;;;;;;;;;23.47;70.22;99140.40;1673953;84;20104;-67
2022/08/06 03:58:21;;;;;;;;;;;;;;;23.78;69.32;99140.86;1687295;84;21929;-67
2022/08/06 04:00:53;;;;;;;;;;;;;;;24.08;68.28;99145.13;1726451;83;20459;-67
2022/08/06 04:03:19;;;;;;;;;;;;;;;24.36;67.07;99143.31;1697456;83;20095;-66
2022/08/06 04:05:45;;;;;;;;;;;;;;;24.63;66.21;99148.55;1715159;83;20624;-66
2022/08/06 04:08:12;;;;;;;;;;;;;;;24.93;65.38;99144.53;1720331;83;20174;-67
2022/08/06 04:10:44;;;;;;;;;;;;;;;25.26;64.21;99145.91;1712491;83;21168;-67
2022/08/06 04:13:15;;;;;;;;;;;;;;;25.60;63.35;99144.23;1721841;83;20118;-68
2022/08/06 04:15:41;;;;;;;;;;;;;;;25.99;62.22;99147.68;1715200;83;20093;-68
2022/08/06 04:18:10;;;;;;;;;;;;;;;26.35;60.66;99143.19;1725830;83;20138;-67
2022/08/06 04:20:39;;;;;;;;;;;;;;;26.68;59.36;99131.25;1725796;83;20481;-68
2022/08/06 04:23:06;;;;;;;;;;;;;;;27.00;58.27;99134.33;1726379;83;21115;-69
2022/08/06 04:25:41;;;;;;;;;;;;;;;27.36;57.42;99138.38;1670148;84;20458;-68
2022/08/06 04:28:08;;;;;;;;;;;;;;;27.76;56.62;99133.08;1694664;84;20187;-68
2022/08/06 04:30:34;;;;;;;;;;;;;;;28.16;55.50;99129.88;1638515;84;20117;-68
2022/08/06 04:33:04;;;;;;;;;;;;;;;28.50;54.74;99123.40;1665242;84;20091;-67
2022/08/06 04:35:32;;;;;;;;;;;;;;;28.82;53.72;99117.21;1687379;83;21180;-69
2022/08/06 04:37:58;;;;;;;;;;;;;;;29.13;52.56;99122.45;1690809;83;20130;-67
2022/08/06 04:40:25;;;;;;;;;;;;;;;29.41;52.02;99128.86;1688644;83;20100;-67
2022/08/06 04:42:52;;;;;;;;;;;;;;;29.68;51.32;99124.22;1690713;83;20128;-66
2022/08/06 04:45:18;;;;;;;;;;;;;;;30.03;50.41;99126.03;1690941;83;20103;-69
2022/08/06 04:47:45;;;;;;;;;;;;;;;30.38;49.53;99119.25;1697047;83;22083;-67
2022/08/06 04:50:11;;;;;;;;;;;;;;;30.77;48.48;99119.19;1690762;83;20103;-68
2022/08/06 04:52:38;;;;;;;;;;;;;;;31.06;47.45;99114.92;1692412;83;20127;-68
2022/08/06 04:55:05;;;;;;;;;;;;;;;31.30;46.09;99117.90;1711241;83;20180;-68
2022/08/06 04:57:32;;;;;;;;;;;;;;;31.54;45.37;99128.83;1708827;83;20098;-68
2022/08/06 04:59:58;;;;;;;;;;;;;;;31.83;44.53;99125.56;1690762;83;21122;-68
2022/08/06 05:02:25;;;;;;;;;;;;;;;32.05;44.29;99123.30;1688710;83;20503;-67
2022/08/06 05:04:57;;;;;;;;;;;;;;;32.32;43.90;99123.87;1688377;83;20143;-68
2022/08/06 05:07:27;;;;;;;;;;;;;;;32.68;43.25;99118.66;1690912;83;20092;-68
2022/08/06 05:09:53;;;;;;;;;;;;;;;33.03;42.58;99123.03;1711043;83;20088;-68
2022/08/06 05:12:32;;;;;;;;;;;;;;;33.41;41.89;99121.77;1690799;83;22167;-68
2022/08/06 05:15:17;;;;;;;;;;;;;;;33.71;41.11;99116.59;1693826;83;20428;-69
2022/08/06 05:17:45;;;;;;;;;;;;;;;34.01;40.26;99119.61;1696235;83;20099;-69
2022/08/06 05:20:16;;;;;;;;;;;;;;;34.25;39.35;99120.97;1718327;83;20430;-69
2022/08/06 05:22:44;;;;;;;;;;;;;;;34.41;39.25;99125.58;1719758;83;20085;-69
2022/08/06 05:25:10;;;;;;;;;;;;;;;34.66;38.51;99123.78;1713116;83;21115;-69
2022/08/06 05:27:37;;;;;;;;;;;;;;;34.85;38.62;99119.98;1699703;83;20474;-69
2022/08/06 05:30:04;;;;;;;;;;;;;;;35.14;37.58;99125.43;1701975;83;20409;-69
2022/08/06 05:32:30;;;;;;;;;;;;;;;35.40;37.16;99116.05;1690043;83;20103;-69
2022/08/06 05:34:57;;;;;;;;;;;;;;;35.75;37.02;99119.47;1689227;83;20501;-68
2022/08/06 05:37:23;;;;;;;;;;;;;;;36.18;36.07;99117.55;1709025;83;21115;-68
2022/08/06 05:39:50;;;;;;;;;;;;;;;36.50;35.73;99116.59;1714713;83;20117;-69
2022/08/06 05:42:16;;;;;;;;;;;;;;;36.90;34.99;99110.23;1707120;83;20094;-68
2022/08/06 05:44:42;;;;;;;;;;;;;;;37.19;33.52;99109.09;1707646;83;20420;-68
2022/08/06 05:47:13;;;;;;;;;;;;;;;37.27;32.63;99108.13;1716871;83;20299;-68
2022/08/06 05:49:43;;;;;;;;;;;;;;;37.27;32.60;99115.88;1689439;83;21168;-68
2022/08/06 05:52:26;;;;;;;;;;;;;;;37.33;32.02;99108.91;1701951;83;20290;-67
2022/08/06 05:55:08;;;;;;;;;;;;;;;37.26;31.63;99114.25;1693002;83;20087;-67
2022/08/06 05:57:53;;;;;;;;;;;;;;;36.99;31.97;99115.09;1705823;83;20122;-67
2022/08/06 06:00:20;;;;;;;;;;;;;;;36.83;32.41;99119.73;1710335;83;20122;-67
2022/08/06 06:02:48;;;;;;;;;;;;;;;36.66;33.15;99115.88;1719325;83;21430;-68
2022/08/06 06:05:14;;;;;;;;;;;;;;;36.71;33.07;99115.63;1716219;83;20085;-68
2022/08/06 06:07:41;;;;;;;;;;;;;;;36.79;33.43;99116.85;1697461;83;20075;-67
2022/08/06 06:10:08;;;;;;;;;;;;;;;37.27;32.99;99116.45;1691406;83;20126;-68
2022/08/06 06:12:35;;;;;;;;;;;;;;;37.78;31.99;99116.83;1687649;83;20087;-68
2022/08/06 06:15:03;;;;;;;;;;;;;;;38.09;31.22;99121.60;1691451;83;21173;-68
2022/08/06 06:18:07;;;;;;;;;;;;;;;38.28;30.76;99120.25;1690441;83;20112;-70
2022/08/06 06:21:06;;;;;;;;;;;;;;;38.20;30.79;99130.39;1704794;83;20073;-70
2022/08/06 06:23:40;;;;;;;;;;;;;;;38.35;30.63;99127.41;1715821;83;20147;-69
2022/08/06 06:26:30;;;;;;;;;;;;;;;38.37;30.19;99121.48;1702373;84;20176;-70
2022/08/06 06:29:18;;;;;;;;;;;;;;;38.58;30.19;99117.20;1707837;83;21160;-69
2022/08/06 06:31:54;;;;;;;;;;;;;;;38.92;29.45;99110.01;1713077;83;20804;-70
2022/08/06 06:34:36;;;;;;;;;;;;;;;39.21;28.97;99112.79;1721845;83;20085;-70
2022/08/06 06:37:21;;;;;;;;;;;;;;;39.32;28.68;99113.19;1702588;83;20111;-69
2022/08/06 06:40:00;;;;;;;;;;;;;;;39.54;28.60;99108.83;1701506;83;20133;-70
2022/08/06 06:42:33;;;;;;;;;;;;;;;39.51;28.12;99110.95;1717489;83;22056;-71
2022/08/06 06:45:09;;;;;;;;;;;;;;;39.31;28.11;99112.19;1707240;83;20129;-72
2022/08/06 06:47:40;;;;;;;;;;;;;;;38.90;28.48;99111.74;1704279;83;20116;-70
2022/08/06 06:50:12;;;;;;;;;;;;;;;38.70;28.73;99106.52;1693959;83;20146;-70
2022/08/06 06:52:42;;;;;;;;;;;;;;;38.94;28.96;99109.05;1689512;83;20445;-68
2022/08/06 06:55:28;;;;;;;;;;;;;;;39.24;28.63;99110.05;1690814;83;21195;-72
2022/08/06 06:58:13;;;;;;;;;;;;;;;39.22;28.45;99114.38;1693949;83;20140;-72
2022/08/06 07:00:39;;;;;;;;;;;;;;;38.69;28.98;99118.83;1663639;84;20429;-70
2022/08/06 07:03:06;;;;;;;;;;;;;;;38.38;29.31;99108.59;1720323;83;20155;-70
2022/08/06 07:05:34;;;;;;;;;;;;;;;38.23;29.67;99109.42;1716858;83;20110;-70
2022/08/06 07:08:01;;;;;;;;;;;;;;;38.16;29.94;99105.91;1696759;83;21210;-70
2022/08/06 07:10:28;;;;;;;;;;;;;;;38.53;29.53;99104.99;1666197;84;20176;-70
2022/08/06 07:12:55;;;;;;;;;;;;;;;38.55;29.23;99105.42;1715801;83;20102;-72
2022/08/06 07:15:21;;;;;;;;;;;;;;;38.19;29.59;99101.61;1712492;83;20095;-71
2022/08/06 07:17:48;;;;;;;;;;;;;;;38.12;29.73;99095.29;1694327;83;20200;-68
2022/08/06 07:20:14;;;;;;;;;;;;;;;38.34;29.60;99095.81;1704561;83;21160;-70
2022/08/06 07:22:42;;;;;;;;;;;;;;;38.31;29.68;99100.12;1710782;83;20143;-68
2022/08/06 07:25:10;;;;;;;;;;;;;;;38.17;29.97;99103.94;1699904;83;20223;-70
2022/08/06 07:27:39;;;;;;;;;;;;;;;38.33;30.00;99105.33;1696282;83;20494;-70
2022/08/06 07:30:08;;;;;;;;;;;;;;;38.53;29.88;99114.72;1693827;83;20100;-69
2022/08/06 07:32:34;;;;;;;;;;;;;;;38.70;29.46;99107.91;1698732;83;21251;-71
2022/08/06 07:35:01;;;;;;;;;;;;;;;39.01;29.32;99110.57;1712958;83;20453;-69
2022/08/06 07:37:28;;;;;;;;;;;;;;;39.41;28.57;99108.79;1689743;83;20494;-69
2022/08/06 07:39:54;;;;;;;;;;;;;;;39.65;28.29;99095.94;1717697;83;20169;-70
2022/08/06 07:42:23;;;;;;;;;;;;;;;39.96;27.93;99095.66;1703690;83;20501;-72
2022/08/06 07:44:52;;;;;;;;;;;;;;;40.50;27.46;99097.28;1713911;82;21210;-70
2022/08/06 07:47:22;;;;;;;;;;;;;;;41.12;26.34;99100.66;1710123;82;20454;-68
2022/08/06 07:49:55;;;;;;;;;;;;;;;40.88;26.33;99102.56;1705012;83;20178;-69
2022/08/06 07:52:22;;;;;;;;;;;;;;;40.45;26.90;99104.55;1717474;82;20087;-70
2022/08/06 07:54:48;;;;;;;;;;;;;;;40.27;27.23;99100.70;1708608;83;20174;-69
2022/08/06 07:57:15;;;;;;;;;;;;;;;40.37;27.05;99109.22;1719582;82;21178;-68
2022/08/06 07:59:41;;;;;;;;;;;;;;;40.14;27.26;99100.71;1704151;82;20975;-68
2022/08/06 08:02:07;;;;;;;;;;;;;;;39.64;27.80;99098.49;1704925;82;20137;-69
2022/08/06 08:07:18;;;;;;;;;;;;;;;40.20;27.90;99100.03;1701734;83;20471;-71
2022/08/06 08:09:44;;;;;;;;;;;;;;;40.76;26.50;99104.19;1693294;83;21169;-71
2022/08/06 08:12:12;;;;;;;;;;;;;;;40.36;26.99;99106.82;1719469;82;20089;-71
2022/08/06 08:14:38;;;;;;;;;;;;;;;39.73;27.87;99101.03;1719119;82;20097;-70
2022/08/06 08:17:04;;;;;;;;;;;;;;;39.96;27.98;99098.44;1719136;82;20097;-71
2022/08/06 08:19:32;;;;;;;;;;;;;;;40.62;27.58;99104.80;1719347;82;20459;-71
2022/08/06 08:22:10;;;;;;;;;;;;;;;41.37;26.22;99103.76;1719204;82;21104;-71
2022/08/06 08:24:37;;;;;;;;;;;;;;;40.63;26.49;99101.44;1733053;82;20083;-70
2022/08/06 08:27:08;;;;;;;;;;;;;;;39.91;27.81;99104.33;1727910;82;20073;-71
2022/08/06 08:29:33;;;;;;;;;;;;;;;39.60;27.99;99105.15;1736791;82;20125;-71
2022/08/06 08:32:00;;;;;;;;;;;;;;;39.46;28.64;99102.91;1739860;82;20114;-71
2022/08/06 08:34:26;;;;;;;;;;;;;;;40.36;28.12;99097.84;1708736;82;21137;-71
2022/08/06 08:36:52;;;;;;;;;;;;;;;40.84;26.89;99101.70;1718267;82;20121;-71
2022/08/06 08:39:19;;;;;;;;;;;;;;;41.19;26.46;99098.56;1689125;85;20086;-71
2022/08/06 08:41:48;;;;;;;;;;;;;;;41.54;25.84;99100.91;1688977;85;20086;-72
2022/08/06 08:44:14;;;;;;;;;;;;;;;42.01;25.68;99098.73;1684745;83;20130;-70
2022/08/06 08:46:42;;;;;;;;;;;;;;;42.12;24.67;99104.65;1668853;85;21135;-70
2022/08/06 08:49:15;;;;;;;;;;;;;;;41.14;25.63;99101.08;1662946;85;20162;-70
2022/08/06 08:51:41;;;;;;;;;;;;;;;40.75;26.59;99101.21;1688204;85;20074;-71
2022/08/06 08:54:08;;;;;;;;;;;;;;;41.41;26.08;99100.39;1669093;85;20280;-71
2022/08/06 08:56:35;;;;;;;;;;;;;;;42.05;25.21;99103.77;1678204;85;20122;-70
2022/08/06 08:59:02;;;;;;;;;;;;;;;41.44;25.49;99105.80;1688789;85;21231;-70
2022/08/06 09:01:28;;;;;;;;;;;;;;;40.77;26.20;99102.22;1669185;85;20094;-70
2022/08/06 09:03:54;;;;;;;;;;;;;;;40.37;26.81;99108.41;1673680;85;20090;-72
2022/08/06 09:06:21;;;;;;;;;;;;;;;40.79;26.37;99109.59;1684904;85;20451;-70
2022/08/06 09:08:47;;;;;;;;;;;;;;;41.01;25.83;99112.91;1688965;85;20173;-71
2022/08/06 09:11:15;;;;;;;;;;;;;;;40.54;26.55;99115.68;1687065;85;39185;-72
2022/08/06 09:13:41;;;;;;;;;;;;;;;39.94;27.30;99118.90;1671496;85;20097;-71
2022/08/06 09:16:08;;;;;;;;;;;;;;;40.16;27.11;99115.06;1688929;85;20128;-70
2022/08/06 09:18:35;;;;;;;;;;;;;;;40.95;26.15;99118.59;1680586;83;20106;-72
2022/08/06 09:21:02;;;;;;;;;;;;;;;41.42;25.85;99115.16;1677480;85;20130;-70
2022/08/06 09:23:29;;;;;;;;;;;;;;;41.72;25.49;99115.86;1688823;85;21667;-71
2022/08/06 09:25:55;;;;;;;;;;;;;;;41.25;25.12;99117.34;1688828;85;20101;-71
2022/08/06 09:28:38;;;;;;;;;;;;;;;39.90;26.63;99120.00;1671793;85;20090;-71
2022/08/06 09:31:14;;;;;;;;;;;;;;;38.55;28.46;99119.89;1669467;85;20125;-70
2022/08/06 09:33:43;;;;;;;;;;;;;;;37.68;30.17;99122.34;1688926;85;20183;-70
2022/08/06 09:36:11;;;;;;;;;;;;;;;37.04;31.09;99113.45;1680040;85;22112;-71
2022/08/06 09:38:53;;;;;;;;;;;;;;;36.36;32.50;99116.72;1671716;84;20160;-69
2022/08/06 09:41:21;;;;;;;;;;;;;;;35.93;33.12;99118.67;1676019;84;20136;-70
2022/08/06 09:43:49;;;;;;;;;;;;;;;35.47;33.76;99118.48;1696305;84;20287;-70
2022/08/06 09:46:17;;;;;;;;;;;;;;;35.17;34.55;99112.89;1678132;84;20143;-70
2022/08/06 09:48:59;;;;;;;;;;;;;;;35.08;34.82;99114.91;1705792;84;21158;-72
2022/08/06 09:51:26;;;;;;;;;;;;;;;35.15;35.10;99109.06;1705784;84;20110;-70
2022/08/06 09:53:54;;;;;;;;;;;;;;;35.37;35.15;99111.20;1705974;84;20138;-70
2022/08/06 09:56:21;;;;;;;;;;;;;;;35.43;34.68;99109.27;1676801;84;20740;-69
2022/08/06 09:58:47;;;;;;;;;;;;;;;35.32;34.31;99110.84;1701270;82;20472;-69
2022/08/06 10:01:17;;;;;;;;;;;;;;;34.94;34.55;99113.00;1709145;82;21862;-70
2022/08/06 10:03:43;;;;;;;;;;;;;;;34.74;35.21;99113.23;1735637;82;20149;-71
2022/08/06 10:06:11;;;;;;;;;;;;;;;34.87;35.28;99114.09;1712176;82;20097;-72
2022/08/06 10:08:38;;;;;;;;;;;;;;;34.92;34.85;99116.66;1695493;83;20160;-70
2022/08/06 10:11:06;;;;;;;;;;;;;;;34.68;34.05;99113.20;1703807;83;20095;-70
2022/08/06 10:13:32;;;;;;;;;;;;;;;34.52;34.69;99114.95;1703232;83;21193;-70
2022/08/06 10:16:00;;;;;;;;;;;;;;;34.36;35.16;99124.39;1723175;83;20113;-71
2022/08/06 10:18:38;;;;;;;;;;;;;;;34.19;35.40;99130.00;1722903;83;20418;-70
2022/08/06 10:21:07;;;;;;;;;;;;;;;34.01;35.46;99120.17;1716205;83;20114;-70
2022/08/06 10:23:36;;;;;;;;;;;;;;;33.87;35.80;99132.03;1701061;83;20084;-72
2022/08/06 10:26:04;;;;;;;;;;;;;;;33.79;35.48;99127.36;1694002;83;21949;-69
2022/08/06 10:28:33;;;;;;;;;;;;;;;33.70;35.70;99121.86;1713879;83;20443;-71
2022/08/06 10:31:03;;;;;;;;;;;;;;;33.67;36.12;99123.08;1723220;83;20077;-71
2022/08/06 10:33:32;;;;;;;;;;;;;;;33.78;35.97;99126.54;1723061;83;20089;-70
2022/08/06 10:36:02;;;;;;;;;;;;;;;33.93;36.21;99125.98;1707757;83;20099;-70
2022/08/06 10:38:28;;;;;;;;;;;;;;;34.14;34.97;99123.30;1709247;83;21188;-70
2022/08/06 10:40:55;;;;;;;;;;;;;;;34.19;34.60;99120.34;1719557;83;20442;-70
2022/08/06 10:43:21;;;;;;;;;;;;;;;34.05;34.91;99123.91;1712613;83;20086;-70
2022/08/06 10:45:47;;;;;;;;;;;;;;;33.98;35.03;99118.89;1706644;83;20157;-70
2022/08/06 10:48:15;;;;;;;;;;;;;;;33.91;35.44;99120.55;1694412;83;20462;-70
2022/08/06 10:50:42;;;;;;;;;;;;;;;33.75;35.46;99125.00;1711213;83;21167;-70
2022/08/06 10:53:08;;;;;;;;;;;;;;;33.58;35.38;99122.32;1700928;83;20516;-70
2022/08/06 10:55:34;;;;;;;;;;;;;;;33.43;35.89;99122.23;1690982;83;20104;-70
2022/08/06 10:58:01;;;;;;;;;;;;;;;33.41;36.29;99133.60;1690832;83;20084;-70
2022/08/06 11:00:27;;;;;;;;;;;;;;;33.43;36.06;99123.61;1691129;83;20119;-71
2022/08/06 11:03:15;;;;;;;;;;;;;;;33.55;36.14;99123.76;1688926;83;20568;-71
2022/08/06 11:05:42;;;;;;;;;;;;;;;33.70;35.82;99119.11;1689020;83;20124;-69
2022/08/06 11:08:21;;;;;;;;;;;;;;;33.89;35.70;99119.52;1693319;83;20138;-70
2022/08/06 11:10:57;;;;;;;;;;;;;;;34.06;35.59;99121.39;1705540;83;20137;-69
2022/08/06 11:13:27;;;;;;;;;;;;;;;34.22;35.32;99119.69;1715553;83;20086;-70
2022/08/06 11:15:54;;;;;;;;;;;;;;;34.31;35.09;99121.80;1705523;83;22741;-70
2022/08/06 11:18:21;;;;;;;;;;;;;;;34.41;35.07;99122.00;1692452;83;20914;-70
2022/08/06 11:20:49;;;;;;;;;;;;;;;34.45;35.06;99122.37;1691126;83;20543;-70
2022/08/06 11:23:19;;;;;;;;;;;;;;;34.51;35.04;99124.36;1688333;83;20189;-68
2022/08/06 11:25:47;;;;;;;;;;;;;;;34.52;34.34;99130.13;1711047;83;20103;-69
2022/08/06 11:28:17;;;;;;;;;;;;;;;34.38;34.12;99126.24;1704709;83;21175;-69
2022/08/06 11:30:46;;;;;;;;;;;;;;;34.23;34.06;99125.45;1716239;83;20085;-71
2022/08/06 11:33:32;;;;;;;;;;;;;;;34.03;34.19;99117.32;1704945;83;20112;-69
2022/08/06 11:36:01;;;;;;;;;;;;;;;34.03;34.26;99124.22;1691158;83;20136;-70
2022/08/06 11:38:46;;;;;;;;;;;;;;;34.03;33.43;99118.70;1688011;83;20104;-70
2022/08/06 11:41:24;;;;;;;;;;;;;;;33.90;33.54;99119.73;1701956;83;22130;-70
2022/08/06 11:43:56;;;;;;;;;;;;;;;33.83;34.17;99119.45;1701890;83;20091;-70
2022/08/06 11:46:35;;;;;;;;;;;;;;;33.80;34.03;99117.36;1693124;83;20103;-70
2022/08/06 11:49:06;;;;;;;;;;;;;;;33.78;34.44;99113.31;1703188;83;20073;-69
2022/08/06 11:51:42;;;;;;;;;;;;;;;33.74;34.58;99114.53;1691022;84;20086;-71
2022/08/06 11:54:18;;;;;;;;;;;;;;;33.67;34.67;99113.43;1714957;83;21144;-70
2022/08/06 11:57:09;;;;;;;;;;;;;;;33.54;35.00;99111.91;1724129;83;20097;-68
2022/08/06 11:59:39;;;;;;;;;;;;;;;33.52;34.45;99107.88;1696578;83;20127;-70
2022/08/06 12:02:07;;;;;;;;;;;;;;;33.55;34.35;99103.08;1708104;83;20105;-69
2022/08/06 12:04:39;;;;;;;;;;;;;;;33.60;34.04;99108.44;1724077;83;20145;-70
2022/08/06 12:07:26;;;;;;;;;;;;;;;33.67;33.64;99107.91;1724108;83;21177;-68
2022/08/06 12:10:04;;;;;;;;;;;;;;;33.77;33.29;99111.68;1720536;83;20098;-70
2022/08/06 12:12:45;;;;;;;;;;;;;;;33.84;33.63;99107.27;1698204;83;20137;-70
2022/08/06 12:15:24;;;;;;;;;;;;;;;33.74;34.13;99104.88;1718802;83;20106;-70
2022/08/06 12:17:58;;;;;;;;;;;;;;;33.61;34.36;99108.66;1697498;83;20095;-70
2022/08/06 12:20:34;;;;;;;;;;;;;;;33.58;34.59;99109.34;1701947;83;21188;-70
2022/08/06 12:23:03;;;;;;;;;;;;;;;33.63;34.58;99104.22;1720935;83;20093;-70
2022/08/06 12:25:34;;;;;;;;;;;;;;;33.70;34.33;99103.13;1700974;83;20184;-70
2022/08/06 12:28:01;;;;;;;;;;;;;;;33.71;34.02;99104.19;1692361;83;20091;-70
2022/08/06 12:30:27;;;;;;;;;;;;;;;33.72;34.47;99103.03;1663071;85;20089;-72
2022/08/06 12:33:00;;;;;;;;;;;;;;;33.72;33.99;99104.41;1693053;83;21144;-69
2022/08/06 12:35:27;;;;;;;;;;;;;;;33.70;33.43;99101.74;1689144;83;20190;-70
2022/08/06 12:37:54;;;;;;;;;;;;;;;33.64;33.29;99101.67;1688852;83;20099;-71
2022/08/06 12:40:29;;;;;;;;;;;;;;;33.61;33.94;99095.47;1672204;83;20109;-71
2022/08/06 12:43:06;;;;;;;;;;;;;;;33.59;34.10;99101.30;1675633;85;20087;-75
2022/08/06 12:45:32;;;;;;;;;;;;;;;33.58;34.00;99096.94;1686944;84;21179;-71
2022/08/06 12:48:00;;;;;;;;;;;;;;;33.47;33.82;99097.84;1670360;84;20117;-71
2022/08/06 12:50:26;;;;;;;;;;;;;;;33.25;33.87;99097.23;1689904;83;20093;-71
2022/08/06 12:53:13;;;;;;;;;;;;;;;33.05;33.79;99086.91;1675154;85;20139;-71
2022/08/06 12:55:47;;;;;;;;;;;;;;;32.89;34.03;99084.64;1658484;85;20115;-69
2022/08/06 12:58:15;;;;;;;;;;;;;;;32.82;34.56;99084.89;1662991;85;21149;-70
2022/08/06 13:00:43;;;;;;;;;;;;;;;32.77;35.06;99078.17;1684987;83;20114;-69
2022/08/06 13:03:09;;;;;;;;;;;;;;;32.79;35.13;99080.03;1685915;84;20080;-70